Time;durP1;ratioP1;P1;durP2;ratioP2;P2;SDS_P1;SDS_P2;PMS_P1;PMS_P2;Temp;Humidity;BMP_temperature;BMP_pressure;BME280_temperature;BME280_humidity;BME280_pressure;Samples;Min_cycle;Max_cycle;Signal;HPM_P1;HPM_P2
2024/02/05 00:01:34;;;;;;;25.80;3.83;;;11.10;99.90;;;;;;5093620;28;20063;-44
2024/02/05 00:04:00;;;;;;;30.92;5.22;;;11.10;99.90;;;;;;5093985;28;20483;-41
2024/02/05 00:06:26;;;;;;;24.58;4.88;;;11.10;99.90;;;;;;5098773;28;20066;-43
2024/02/05 00:08:52;;;;;;;25.13;4.50;;;11.20;99.90;;;;;;5097402;28;20016;-41
2024/02/05 00:11:17;;;;;;;18.80;4.43;;;11.10;99.90;;;;;;5093454;28;20032;-42
2024/02/05 00:13:43;;;;;;;21.70;4.35;;;11.10;99.90;;;;;;5093613;28;20396;-40
2024/02/05 00:16:10;;;;;;;21.83;4.53;;;11.00;99.90;;;;;;5111549;28;20479;-41
2024/02/05 00:18:36;;;;;;;20.40;3.70;;;11.00;99.90;;;;;;5107662;28;20020;-41
2024/02/05 00:21:02;;;;;;;12.75;2.60;;;11.00;99.90;;;;;;5098736;28;20072;-42
2024/02/05 00:23:28;;;;;;;25.48;3.67;;;11.00;99.90;;;;;;5093334;28;20028;-42
2024/02/05 00:25:54;;;;;;;23.20;4.63;;;11.00;99.90;;;;;;5093570;28;20088;-43
2024/02/05 00:28:19;;;;;;;27.05;4.80;;;11.00;99.90;;;;;;5093286;28;20040;-45
2024/02/05 00:30:45;;;;;;;27.25;4.43;;;11.00;99.90;;;;;;5093045;28;20421;-40
2024/02/05 00:33:11;;;;;;;25.48;3.88;;;11.00;99.90;;;;;;5096129;28;20533;-39
2024/02/05 00:35:37;;;;;;;23.65;4.97;;;10.90;99.90;;;;;;5113693;28;20040;-38
2024/02/05 00:38:03;;;;;;;26.30;4.43;;;11.00;99.90;;;;;;5099961;28;20063;-39
2024/02/05 00:40:29;;;;;;;31.35;4.03;;;11.00;99.90;;;;;;5111442;28;20431;-43
2024/02/05 00:42:54;;;;;;;27.20;5.05;;;10.90;99.90;;;;;;5105365;28;20095;-40
2024/02/05 00:45:20;;;;;;;16.45;3.15;;;10.80;99.90;;;;;;5092975;28;20051;-40
2024/02/05 00:47:46;;;;;;;35.28;5.15;;;10.70;99.90;;;;;;5099888;28;20361;-41
2024/02/05 00:50:12;;;;;;;16.48;3.33;;;10.80;99.90;;;;;;5111144;28;20034;-43
2024/02/05 00:52:38;;;;;;;34.35;3.97;;;10.80;99.90;;;;;;5112594;28;20472;-42
2024/02/05 00:55:04;;;;;;;18.88;3.35;;;10.80;99.90;;;;;;5102929;28;20016;-44
2024/02/05 00:57:30;;;;;;;18.52;5.28;;;10.90;99.90;;;;;;5092915;28;20032;-43
2024/02/05 00:59:56;;;;;;;21.08;3.88;;;10.90;99.90;;;;;;5093176;28;20051;-39
2024/02/05 01:02:23;;;;;;;24.33;4.57;;;10.90;99.90;;;;;;5092837;28;20090;-41
2024/02/05 01:04:49;;;;;;;32.63;3.90;;;10.90;99.90;;;;;;5093072;28;20115;-41
2024/02/05 01:07:15;;;;;;;30.67;4.22;;;10.90;99.90;;;;;;5096228;28;20039;-43
2024/02/05 01:09:41;;;;;;;35.55;5.20;;;10.90;99.90;;;;;;5092296;28;20028;-38
2024/02/05 01:12:08;;;;;;;15.60;4.07;;;10.80;99.90;;;;;;5094416;28;20040;-41
2024/02/05 01:14:34;;;;;;;28.48;4.55;;;10.70;99.90;;;;;;5092771;28;20028;-38
2024/02/05 01:17:00;;;;;;;26.77;4.18;;;10.70;99.90;;;;;;5092616;28;20421;-41
2024/02/05 01:19:26;;;;;;;29.27;4.03;;;10.60;99.90;;;;;;5091141;28;20016;-42
2024/02/05 01:21:52;;;;;;;23.30;4.32;;;10.50;99.90;;;;;;5106044;28;20433;-54
2024/02/05 01:24:18;;;;;;;20.67;3.53;;;10.60;99.90;;;;;;5112158;28;20365;-55
2024/02/05 01:26:44;;;;;;;24.17;3.72;;;10.50;99.90;;;;;;5113009;28;20084;-55
2024/02/05 01:29:10;;;;;;;32.33;5.82;;;10.50;99.90;;;;;;5110014;28;20036;-55
2024/02/05 01:31:36;;;;;;;24.70;3.95;;;10.50;99.90;;;;;;5092661;28;20385;-55
2024/02/05 01:34:02;;;;;;;14.27;4.43;;;10.50;99.90;;;;;;5092452;28;20091;-55
2024/02/05 01:36:28;;;;;;;32.45;5.35;;;10.50;99.90;;;;;;5092421;28;20492;-58
2024/02/05 01:38:55;;;;;;;19.80;3.45;;;10.50;99.90;;;;;;5096520;28;20468;-56
2024/02/05 01:41:21;;;;;;;32.38;5.38;;;10.50;99.90;;;;;;5112876;28;20024;-55
2024/02/05 01:43:47;;;;;;;16.65;4.82;;;10.50;99.90;;;;;;5095901;28;20082;-56
2024/02/05 01:46:20;;;;;;;24.45;3.35;;;10.40;99.90;;;;;;5097043;28;20086;-56
2024/02/05 01:48:50;;;;;;;22.02;4.40;;;10.40;99.90;;;;;;5094959;28;20392;-57
2024/02/05 01:51:17;;;;;;;32.15;4.20;;;10.40;99.90;;;;;;5096181;28;20039;-55
2024/02/05 01:53:43;;;;;;;18.13;3.55;;;10.40;99.90;;;;;;5096095;28;20370;-40
2024/02/05 01:56:10;;;;;;;27.40;4.68;;;10.40;99.90;;;;;;5094884;28;20020;-39
2024/02/05 01:58:37;;;;;;;22.70;3.80;;;10.30;99.90;;;;;;5096700;28;20106;-40
2024/02/05 02:01:06;;;;;;;24.45;3.83;;;10.20;99.90;;;;;;5084108;28;20067;-39
2024/02/05 02:03:39;;;;;;;25.77;5.18;;;10.10;99.90;;;;;;5100897;28;20032;-40
2024/02/05 02:06:05;;;;;;;34.00;3.75;;;10.20;99.90;;;;;;5110338;28;20108;-38
2024/02/05 02:08:31;;;;;;;32.00;4.45;;;10.20;99.90;;;;;;5095749;28;20107;-43
2024/02/05 02:10:57;;;;;;;34.30;5.15;;;10.10;99.90;;;;;;5095560;28;20028;-40
2024/02/05 02:13:23;;;;;;;27.65;3.83;;;10.10;99.90;;;;;;5100254;28;20028;-42
2024/02/05 02:15:49;;;;;;;22.55;4.25;;;10.10;99.90;;;;;;5095685;28;20509;-38
2024/02/05 02:18:17;;;;;;;17.95;3.83;;;10.10;99.90;;;;;;5103439;28;20472;-41
2024/02/05 02:20:46;;;;;;;20.50;3.40;;;10.10;99.90;;;;;;5110839;28;20429;-39
2024/02/05 02:23:26;;;;;;;28.27;4.55;;;10.10;99.90;;;;;;5116026;28;20496;-55
2024/02/05 02:25:52;;;;;;;37.65;4.85;;;10.10;99.90;;;;;;5115201;28;20387;-39
2024/02/05 02:28:18;;;;;;;23.98;4.68;;;10.20;99.90;;;;;;5112531;28;20024;-42
2024/02/05 02:30:44;;;;;;;33.40;4.18;;;10.30;99.90;;;;;;5115728;28;20522;-56
2024/02/05 02:33:33;;;;;;;31.48;5.43;;;10.30;99.90;;;;;;5115867;28;20081;-58
2024/02/05 02:36:02;;;;;;;14.27;4.32;;;10.20;99.90;;;;;;5109446;28;20027;-55
2024/02/05 02:38:34;;;;;;;21.48;3.60;;;10.20;99.90;;;;;;5101146;28;20028;-56
2024/02/05 02:41:04;;;;;;;28.23;4.43;;;10.20;99.90;;;;;;5095185;28;20042;-55
2024/02/05 02:43:35;;;;;;;24.33;4.72;;;10.20;99.90;;;;;;5095044;28;20492;-57
2024/02/05 02:46:03;;;;;;;26.52;3.83;;;10.20;99.90;;;;;;5095211;28;20028;-56
2024/02/05 02:48:28;;;;;;;23.85;3.60;;;10.30;99.90;;;;;;5095126;28;20059;-42
2024/02/05 02:50:54;;;;;;;20.50;4.15;;;10.20;99.90;;;;;;5095146;28;20032;-41
2024/02/05 02:53:20;;;;;;;17.42;4.47;;;10.30;99.90;;;;;;5097046;28;20017;-39
2024/02/05 02:55:46;;;;;;;32.22;5.28;;;10.30;99.90;;;;;;5114539;28;20026;-44
2024/02/05 02:58:11;;;;;;;29.15;4.30;;;10.30;99.90;;;;;;5114060;28;20106;-56
2024/02/05 03:00:37;;;;;;;23.50;4.60;;;10.30;99.90;;;;;;5115337;28;20016;-56
2024/02/05 03:03:04;;;;;;;29.13;3.85;;;10.20;99.90;;;;;;5114242;27;20011;-56
2024/02/05 03:05:29;;;;;;;23.42;4.00;;;10.30;99.90;;;;;;5094846;28;20020;-55
2024/02/05 03:07:55;;;;;;;21.60;3.35;;;10.20;99.90;;;;;;5095303;28;20440;-57
2024/02/05 03:10:20;;;;;;;16.17;3.45;;;10.20;99.90;;;;;;5100497;28;20179;-56
2024/02/05 03:12:46;;;;;;;32.63;3.75;;;10.20;99.90;;;;;;5098331;28;20050;-55
2024/02/05 03:15:12;;;;;;;46.15;4.90;;;10.10;99.90;;;;;;5094496;28;20059;-56
2024/02/05 03:17:37;;;;;;;25.48;4.57;;;10.10;99.90;;;;;;5104503;28;20472;-58
2024/02/05 03:20:06;;;;;;;14.13;4.22;;;10.00;99.90;;;;;;5103446;28;20484;-57
2024/02/05 03:22:31;;;;;;;26.42;4.82;;;10.00;99.90;;;;;;5094354;28;20515;-44
2024/02/05 03:24:57;;;;;;;19.17;4.15;;;10.10;99.90;;;;;;5094332;28;20032;-40
2024/02/05 03:27:23;;;;;;;31.65;4.15;;;10.00;99.90;;;;;;5095468;28;20494;-40
2024/02/05 03:29:48;;;;;;;31.02;5.18;;;10.00;99.90;;;;;;5113565;28;20031;-40
2024/02/05 03:32:14;;;;;;;26.42;4.72;;;10.10;99.90;;;;;;5111589;27;20020;-40
2024/02/05 03:34:40;;;;;;;32.85;5.72;;;10.10;99.90;;;;;;5098802;28;20031;-48
2024/02/05 03:37:05;;;;;;;18.83;3.55;;;10.10;99.90;;;;;;5094230;28;20362;-40
2024/02/05 03:39:31;;;;;;;32.58;5.03;;;10.10;99.90;;;;;;5094943;28;20024;-40
2024/02/05 03:41:57;;;;;;;33.75;5.43;;;10.00;99.90;;;;;;5113442;28;20154;-43
2024/02/05 03:44:23;;;;;;;35.85;5.20;;;10.00;99.90;;;;;;5094616;28;20020;-40
2024/02/05 03:46:48;;;;;;;33.75;5.00;;;9.90;99.90;;;;;;5110467;28;20023;-43
2024/02/05 03:49:14;;;;;;;24.13;5.22;;;10.00;99.90;;;;;;5109457;28;20027;-42
2024/02/05 03:51:40;;;;;;;28.25;3.75;;;10.00;99.90;;;;;;5094040;28;20365;-44
2024/02/05 03:54:06;;;;;;;26.17;3.97;;;10.00;99.90;;;;;;5098224;28;20024;-40
2024/02/05 03:56:32;;;;;;;42.88;3.58;;;10.10;99.90;;;;;;5093862;28;20020;-55
2024/02/05 03:58:57;;;;;;;26.88;4.78;;;10.10;99.90;;;;;;5092800;28;20073;-57
2024/02/05 04:01:24;;;;;;;22.02;4.22;;;10.10;99.90;;;;;;5093786;28;20035;-56
2024/02/05 04:03:50;;;;;;;34.65;4.70;;;10.10;99.90;;;;;;5094229;28;20118;-60
2024/02/05 04:06:15;;;;;;;16.75;4.32;;;10.10;99.90;;;;;;5093675;28;20512;-43
2024/02/05 04:08:41;;;;;;;21.63;3.53;;;10.20;99.90;;;;;;5096232;28;20020;-40
2024/02/05 04:11:07;;;;;;;27.67;4.25;;;10.20;99.90;;;;;;5109981;28;20096;-40
2024/02/05 04:13:32;;;;;;;26.42;5.22;;;10.20;99.90;;;;;;5105981;28;20069;-50
2024/02/05 04:15:58;;;;;;;25.80;4.65;;;10.20;99.90;;;;;;5113842;28;20023;-40
2024/02/05 04:18:24;;;;;;;26.42;4.35;;;10.20;99.90;;;;;;5110306;27;20095;-40
2024/02/05 04:20:56;;;;;;;23.70;3.75;;;10.20;99.90;;;;;;5093912;28;20495;-39
2024/02/05 04:23:24;;;;;;;29.13;5.20;;;10.20;99.90;;;;;;5093586;28;20020;-42
2024/02/05 04:25:50;;;;;;;31.92;4.82;;;10.20;99.90;;;;;;5112959;28;20546;-42
2024/02/05 04:28:15;;;;;;;17.40;4.15;;;10.20;99.90;;;;;;5110952;28;20115;-41
2024/02/05 04:30:42;;;;;;;23.23;5.68;;;10.20;99.90;;;;;;5092882;28;20101;-39
2024/02/05 04:33:07;;;;;;;20.55;3.72;;;10.20;99.90;;;;;;5091817;28;20552;-40
2024/02/05 04:35:33;;;;;;;28.35;3.92;;;10.20;99.90;;;;;;5093294;28;20164;-42
2024/02/05 04:37:59;;;;;;;18.17;4.30;;;10.20;99.90;;;;;;5093687;28;20016;-45
2024/02/05 04:40:24;;;;;;;27.23;5.45;;;10.20;99.90;;;;;;5094267;28;20544;-40
2024/02/05 04:42:50;;;;;;;19.63;4.22;;;10.20;99.90;;;;;;5093225;28;20103;-55
2024/02/05 04:45:16;;;;;;;22.65;4.43;;;10.10;99.90;;;;;;5093358;28;20032;-57
2024/02/05 04:47:42;;;;;;;26.02;4.10;;;10.10;99.90;;;;;;5093212;28;20468;-58
2024/02/05 04:50:08;;;;;;;25.60;4.22;;;10.10;99.90;;;;;;5092780;28;20032;-56
2024/02/05 04:52:34;;;;;;;37.38;5.28;;;10.20;99.90;;;;;;5094037;28;20094;-55
2024/02/05 04:54:59;;;;;;;15.70;3.25;;;10.10;99.90;;;;;;5104169;28;20353;-45
2024/02/05 04:57:25;;;;;;;22.83;6.45;;;10.20;99.90;;;;;;5113602;28;20043;-41
2024/02/05 04:59:51;;;;;;;29.05;3.90;;;10.20;99.90;;;;;;5112440;28;20023;-47
2024/02/05 05:02:16;;;;;;;26.08;4.45;;;10.20;99.90;;;;;;5112404;28;20024;-40
2024/02/05 05:04:43;;;;;;;29.88;5.43;;;10.10;99.90;;;;;;5113382;28;20028;-47
2024/02/05 05:07:08;;;;;;;31.52;5.18;;;10.10;99.90;;;;;;5113159;28;20028;-43
2024/02/05 05:09:34;;;;;;;20.90;4.68;;;10.10;99.90;;;;;;5099896;28;20024;-40
2024/02/05 05:11:59;;;;;;;29.85;6.28;;;10.10;99.90;;;;;;5112570;28;20104;-42
2024/02/05 05:14:25;;;;;;;28.75;4.60;;;10.20;99.90;;;;;;5093387;28;20016;-40
2024/02/05 05:16:51;;;;;;;21.48;6.05;;;10.10;99.90;;;;;;5092719;28;20028;-41
2024/02/05 05:19:17;;;;;;;24.15;5.63;;;10.10;99.90;;;;;;5093452;28;20024;-55
2024/02/05 05:21:43;;;;;;;36.28;5.85;;;10.10;99.90;;;;;;5096859;28;20035;-56
2024/02/05 05:24:09;;;;;;;26.80;3.95;;;10.10;99.90;;;;;;5109586;28;20019;-57
2024/02/05 05:26:36;;;;;;;21.70;4.85;;;10.20;99.90;;;;;;5117380;28;20491;-55
2024/02/05 05:29:03;;;;;;;22.77;4.63;;;10.10;99.90;;;;;;5100978;28;20457;-53
2024/02/05 05:31:29;;;;;;;13.43;4.23;;;10.20;99.90;;;;;;5110680;28;20506;-58
2024/02/05 05:33:55;;;;;;;19.98;4.00;;;10.20;99.90;;;;;;5117018;28;20090;-56
2024/02/05 05:36:20;;;;;;;26.52;6.32;;;10.20;99.90;;;;;;5117231;28;20054;-57
2024/02/05 05:38:46;;;;;;;23.17;5.05;;;10.20;99.90;;;;;;5113941;28;20057;-55
2024/02/05 05:41:12;;;;;;;14.35;4.68;;;10.20;99.90;;;;;;5116842;28;20020;-57
2024/02/05 05:43:37;;;;;;;37.58;5.95;;;10.10;99.90;;;;;;5105340;28;20489;-56
2024/02/05 05:46:03;;;;;;;29.35;4.40;;;10.20;99.90;;;;;;5097008;28;20028;-57
2024/02/05 05:48:29;;;;;;;27.70;4.65;;;10.20;99.90;;;;;;5096176;28;20423;-55
2024/02/05 05:50:54;;;;;;;17.38;4.35;;;10.10;99.90;;;;;;5096063;28;20028;-56
2024/02/05 05:53:20;;;;;;;24.10;4.05;;;10.10;99.90;;;;;;5102713;28;20580;-58
2024/02/05 05:55:48;;;;;;;21.95;3.95;;;10.10;99.90;;;;;;5099529;28;20453;-60
2024/02/05 05:58:14;;;;;;;22.05;5.32;;;10.20;99.90;;;;;;5096027;28;20027;-56
2024/02/05 06:00:40;;;;;;;21.13;4.43;;;10.20;99.90;;;;;;5108073;28;20027;-53
2024/02/05 06:03:06;;;;;;;31.85;5.63;;;10.20;99.90;;;;;;5115831;28;20051;-57
2024/02/05 06:05:31;;;;;;;25.67;5.03;;;10.20;99.90;;;;;;5114778;28;20024;-57
2024/02/05 06:07:57;;;;;;;14.07;2.63;;;10.30;99.90;;;;;;5113346;28;20031;-56
2024/02/05 06:10:23;;;;;;;23.42;4.72;;;10.20;99.90;;;;;;5096129;28;20099;-59
2024/02/05 06:12:48;;;;;;;22.88;4.25;;;10.20;99.90;;;;;;5101647;28;20050;-57
2024/02/05 06:15:14;;;;;;;22.25;4.40;;;10.10;99.90;;;;;;5116253;28;20484;-60
2024/02/05 06:17:40;;;;;;;17.83;4.65;;;10.10;99.90;;;;;;5116269;28;20058;-52
2024/02/05 06:20:07;;;;;;;26.63;4.50;;;10.10;99.90;;;;;;5096740;28;20028;-41
2024/02/05 06:22:35;;;;;;;23.00;3.92;;;10.10;99.90;;;;;;5095962;28;20413;-56
2024/02/05 06:25:01;;;;;;;21.92;5.10;;;10.10;99.90;;;;;;5095504;28;20373;-57
2024/02/05 06:27:26;;;;;;;18.20;4.40;;;10.10;99.90;;;;;;5095619;28;20024;-56
2024/02/05 06:29:52;;;;;;;23.27;4.95;;;10.00;99.90;;;;;;5094716;28;20051;-54
2024/02/05 06:32:17;;;;;;;28.20;4.57;;;10.00;99.90;;;;;;5111730;28;20051;-56
2024/02/05 06:34:44;;;;;;;12.82;3.50;;;10.00;99.90;;;;;;5108063;28;20433;-57
2024/02/05 06:37:10;;;;;;;24.63;4.63;;;10.00;99.90;;;;;;5095860;28;20020;-56
2024/02/05 06:39:36;;;;;;;34.92;4.63;;;9.90;99.90;;;;;;5095360;28;20472;-58
2024/02/05 06:42:01;;;;;;;21.52;4.35;;;10.00;99.90;;;;;;5095172;28;20104;-57
2024/02/05 06:44:27;;;;;;;25.48;4.53;;;9.90;99.90;;;;;;5095443;28;20438;-56
2024/02/05 06:46:54;;;;;;;19.73;3.58;;;10.00;99.90;;;;;;5095513;28;20085;-57
2024/02/05 06:49:20;;;;;;;17.63;4.32;;;9.90;99.90;;;;;;5094856;28;20028;-56
2024/02/05 06:51:46;;;;;;;36.33;4.80;;;9.90;99.90;;;;;;5112923;28;20020;-56
2024/02/05 06:54:12;;;;;;;16.63;4.05;;;9.90;99.90;;;;;;5112971;28;20024;-56
2024/02/05 06:56:37;;;;;;;25.70;4.85;;;9.90;99.90;;;;;;5115761;28;20068;-56
2024/02/05 06:59:03;;;;;;;22.13;4.35;;;9.90;99.90;;;;;;5115416;28;20024;-57
2024/02/05 07:01:29;;;;;;;23.00;3.97;;;9.80;99.90;;;;;;5098849;28;20027;-57
2024/02/05 07:03:55;;;;;;;27.45;4.50;;;9.80;99.90;;;;;;5094682;28;20374;-57
2024/02/05 07:06:21;;;;;;;25.33;4.93;;;9.90;99.90;;;;;;5094680;28;20031;-57
2024/02/05 07:08:46;;;;;;;15.15;4.20;;;9.90;99.90;;;;;;5095788;28;20056;-55
2024/02/05 07:11:12;;;;;;;31.30;5.90;;;10.00;99.90;;;;;;5099118;28;20424;-56
2024/02/05 07:13:41;;;;;;;24.63;3.85;;;10.00;99.90;;;;;;5102172;27;20117;-58
2024/02/05 07:16:11;;;;;;;30.15;4.53;;;9.90;99.90;;;;;;5093398;28;20111;-56
2024/02/05 07:18:36;;;;;;;15.85;4.03;;;9.90;99.90;;;;;;5094605;28;20027;-57
2024/02/05 07:21:04;;;;;;;18.85;5.45;;;10.00;99.90;;;;;;5094417;28;20438;-54
2024/02/05 07:23:31;;;;;;;29.42;4.93;;;10.00;99.90;;;;;;5099449;28;20511;-56
2024/02/05 07:25:57;;;;;;;20.95;4.25;;;10.00;99.90;;;;;;5105905;28;20107;-56
2024/02/05 07:28:22;;;;;;;23.75;3.78;;;10.00;99.90;;;;;;5093070;28;20496;-56
2024/02/05 07:30:48;;;;;;;28.33;5.20;;;10.00;99.90;;;;;;5097813;28;20038;-56
2024/02/05 07:33:13;;;;;;;35.60;6.05;;;10.10;99.90;;;;;;5108735;28;20099;-57
2024/02/05 07:35:39;;;;;;;25.17;5.03;;;10.10;99.90;;;;;;5104548;28;20031;-57
2024/02/05 07:38:05;;;;;;;16.75;3.17;;;10.10;99.90;;;;;;5094046;28;20027;-57
2024/02/05 07:40:30;;;;;;;17.40;5.20;;;10.00;99.90;;;;;;5094010;28;20032;-56
2024/02/05 07:42:56;;;;;;;12.88;3.95;;;10.00;99.90;;;;;;5094092;28;20397;-59
2024/02/05 07:45:22;;;;;;;25.58;5.05;;;10.00;99.90;;;;;;5096083;28;20031;-58
2024/02/05 07:47:47;;;;;;;21.20;3.63;;;10.00;99.90;;;;;;5113376;28;20484;-56
2024/02/05 07:50:13;;;;;;;37.42;7.18;;;10.00;99.90;;;;;;5107875;28;20031;-56
2024/02/05 07:52:39;;;;;;;35.42;5.38;;;10.00;99.90;;;;;;5102243;28;20016;-58
2024/02/05 07:55:04;;;;;;;22.65;4.82;;;10.00;99.90;;;;;;5104092;28;20100;-53
2024/02/05 07:57:30;;;;;;;23.05;4.70;;;10.10;99.90;;;;;;5102874;28;20028;-42
2024/02/05 07:59:57;;;;;;;27.13;4.55;;;10.10;99.90;;;;;;5111242;28;20024;-46
2024/02/05 08:02:25;;;;;;;21.97;4.27;;;10.10;99.90;;;;;;5106593;28;20039;-39
2024/02/05 08:04:51;;;;;;;29.17;5.05;;;10.20;99.90;;;;;;5098730;28;20097;-42
2024/02/05 08:07:17;;;;;;;13.50;3.67;;;10.20;99.90;;;;;;5105731;28;20063;-56
2024/02/05 08:09:43;;;;;;;22.38;4.15;;;10.20;99.90;;;;;;5113913;28;20110;-56
2024/02/05 08:12:08;;;;;;;19.73;4.60;;;10.20;99.90;;;;;;5102337;28;20020;-56
2024/02/05 08:14:34;;;;;;;28.60;4.72;;;10.30;99.90;;;;;;5107323;28;20024;-58
2024/02/05 08:17:00;;;;;;;34.30;5.10;;;10.30;99.90;;;;;;5100463;28;20523;-55
2024/02/05 08:19:25;;;;;;;27.08;4.82;;;10.20;99.90;;;;;;5094728;28;20028;-55
2024/02/05 08:21:51;;;;;;;24.58;4.47;;;10.30;99.90;;;;;;5092880;28;20376;-55
2024/02/05 08:24:18;;;;;;;28.40;4.35;;;10.30;99.90;;;;;;5109249;28;20103;-40
2024/02/05 08:26:43;;;;;;;34.58;5.63;;;10.30;99.90;;;;;;5094117;28;21918;-48
2024/02/05 08:29:09;;;;;;;35.92;5.97;;;10.30;99.90;;;;;;5092874;28;20028;-40
2024/02/05 08:31:36;;;;;;;24.85;5.50;;;10.30;99.90;;;;;;5096094;28;20378;-40
2024/02/05 08:34:02;;;;;;;28.13;4.70;;;10.20;99.90;;;;;;5096253;28;20465;-44
2024/02/05 08:36:28;;;;;;;29.33;5.65;;;10.30;99.90;;;;;;5090410;28;20544;-42
2024/02/05 08:38:54;;;;;;;32.95;4.43;;;10.20;99.90;;;;;;5104345;28;20039;-44
2024/02/05 08:41:20;;;;;;;16.40;4.50;;;10.20;99.90;;;;;;5107845;28;20364;-56
2024/02/05 08:43:46;;;;;;;33.38;7.25;;;10.20;99.90;;;;;;5099908;28;20031;-55
2024/02/05 08:46:12;;;;;;;20.70;5.20;;;10.20;99.90;;;;;;5104321;28;20137;-55
2024/02/05 08:48:39;;;;;;;24.25;4.25;;;10.20;99.90;;;;;;5092667;28;20488;-57
2024/02/05 08:51:05;;;;;;;27.45;5.28;;;10.30;99.90;;;;;;5099692;28;20377;-57
2024/02/05 08:53:31;;;;;;;35.92;5.45;;;10.30;99.90;;;;;;5097517;28;20024;-57
2024/02/05 08:55:57;;;;;;;20.65;5.22;;;10.30;99.90;;;;;;5101468;28;20019;-56
2024/02/05 08:58:22;;;;;;;23.00;4.47;;;10.30;99.90;;;;;;5092662;28;20047;-57
2024/02/05 09:00:49;;;;;;;23.65;4.70;;;10.40;99.90;;;;;;5102581;28;20456;-56
2024/02/05 09:03:16;;;;;;;26.08;4.80;;;10.30;99.90;;;;;;5104194;28;20023;-57
2024/02/05 09:05:43;;;;;;;18.35;4.45;;;10.30;99.90;;;;;;5100306;28;20031;-60
2024/02/05 09:08:08;;;;;;;22.23;4.60;;;10.30;99.90;;;;;;5101036;28;20110;-57
2024/02/05 09:10:36;;;;;;;20.95;4.05;;;10.30;99.90;;;;;;5096637;28;20560;-44
2024/02/05 09:13:02;;;;;;;26.58;5.60;;;10.30;99.90;;;;;;5097631;28;20016;-46
2024/02/05 09:15:29;;;;;;;20.00;3.70;;;10.30;99.90;;;;;;5096475;28;20018;-61
2024/02/05 09:17:55;;;;;;;27.08;4.88;;;10.20;99.90;;;;;;5096882;28;20419;-59
2024/02/05 09:20:21;;;;;;;21.30;4.40;;;10.20;99.90;;;;;;5103666;28;20024;-57
2024/02/05 09:22:48;;;;;;;22.05;4.18;;;10.20;99.90;;;;;;5107450;28;20130;-56
2024/02/05 09:25:14;;;;;;;26.40;6.13;;;10.20;99.90;;;;;;5099762;28;20490;-40
2024/02/05 09:27:40;;;;;;;27.77;5.70;;;10.20;99.90;;;;;;5095906;28;20034;-46
2024/02/05 09:30:06;;;;;;;29.80;4.95;;;10.30;99.90;;;;;;5106426;28;20039;-48
2024/02/05 09:32:33;;;;;;;27.30;4.47;;;10.30;99.90;;;;;;5095642;28;20023;-45
2024/02/05 09:34:59;;;;;;;33.90;4.13;;;10.30;99.90;;;;;;5095634;28;20027;-44
2024/02/05 09:37:24;;;;;;;19.80;3.95;;;10.30;99.90;;;;;;5098349;28;20031;-42
2024/02/05 09:39:50;;;;;;;41.72;5.93;;;10.40;99.90;;;;;;5112034;28;20030;-41
2024/02/05 09:42:16;;;;;;;21.58;4.03;;;10.30;99.90;;;;;;5100390;28;20024;-49
2024/02/05 09:44:45;;;;;;;29.17;5.20;;;10.30;99.90;;;;;;5110666;28;20030;-41
2024/02/05 09:47:17;;;;;;;17.60;3.67;;;10.30;99.90;;;;;;5107575;28;20042;-48
2024/02/05 09:49:47;;;;;;;34.67;4.75;;;10.30;99.90;;;;;;5091815;28;20028;-47
2024/02/05 09:52:15;;;;;;;23.08;5.30;;;10.30;99.90;;;;;;5092392;28;20050;-42
2024/02/05 09:54:45;;;;;;;24.35;3.35;;;10.30;99.90;;;;;;5092409;28;20024;-43
2024/02/05 09:57:12;;;;;;;28.95;3.80;;;10.30;99.90;;;;;;5093429;28;20533;-44
2024/02/05 09:59:41;;;;;;;20.80;3.53;;;10.40;99.90;;;;;;5100134;28;20035;-43
2024/02/05 10:02:07;;;;;;;19.60;3.97;;;10.40;99.90;;;;;;5095452;28;20031;-39
2024/02/05 10:04:42;;;;;;;25.48;4.93;;;10.40;99.90;;;;;;5097730;28;20504;-42
2024/02/05 10:07:15;;;;;;;24.77;3.95;;;10.40;99.90;;;;;;5111999;28;20391;-39
2024/02/05 10:09:42;;;;;;;26.45;4.40;;;10.40;99.90;;;;;;5116361;28;20528;-48
2024/02/05 10:12:11;;;;;;;32.70;4.13;;;10.40;99.90;;;;;;5113112;28;20495;-56
2024/02/05 10:14:38;;;;;;;20.77;4.90;;;10.40;99.90;;;;;;5114050;28;20024;-58
2024/02/05 10:17:04;;;;;;;23.95;5.22;;;10.50;99.90;;;;;;5102914;28;20022;-56
2024/02/05 10:19:30;;;;;;;32.03;6.57;;;10.50;99.90;;;;;;5095983;28;20016;-57
2024/02/05 10:21:57;;;;;;;26.08;4.22;;;10.50;99.90;;;;;;5103353;28;20028;-54
2024/02/05 10:24:23;;;;;;;26.92;3.83;;;10.40;99.90;;;;;;5108155;28;20118;-56
2024/02/05 10:26:49;;;;;;;35.97;6.22;;;10.40;99.90;;;;;;5112749;28;20387;-40
2024/02/05 10:29:16;;;;;;;31.85;5.65;;;10.50;99.90;;;;;;5095051;28;20114;-40
2024/02/05 10:31:50;;;;;;;25.25;3.97;;;10.60;99.90;;;;;;5095307;28;20400;-41
2024/02/05 10:34:17;;;;;;;29.52;5.90;;;10.50;99.90;;;;;;5096628;28;20032;-41
2024/02/05 10:36:43;;;;;;;29.65;4.47;;;10.50;99.90;;;;;;5114851;28;20024;-45
2024/02/05 10:39:09;;;;;;;31.08;7.32;;;10.50;99.90;;;;;;5103902;27;20031;-41
2024/02/05 10:41:38;;;;;;;21.13;5.93;;;10.50;99.90;;;;;;5119155;27;20024;-51
2024/02/05 10:44:04;;;;;;;23.35;5.43;;;10.50;99.90;;;;;;5109973;28;20031;-39
2024/02/05 10:46:36;;;;;;;22.33;4.43;;;10.60;99.90;;;;;;5101849;28;20036;-40
2024/02/05 10:49:01;;;;;;;18.48;5.22;;;10.60;99.90;;;;;;5103743;28;20035;-41
2024/02/05 10:51:28;;;;;;;22.55;4.68;;;10.70;99.90;;;;;;5095733;28;20081;-39
2024/02/05 10:53:54;;;;;;;25.15;3.97;;;10.70;99.90;;;;;;5094655;28;20024;-39
2024/02/05 10:56:19;;;;;;;19.83;4.22;;;10.80;99.90;;;;;;5097481;28;20116;-40
2024/02/05 10:58:46;;;;;;;18.67;3.50;;;10.60;99.90;;;;;;5115324;28;20500;-44
2024/02/05 11:01:15;;;;;;;22.20;3.70;;;10.60;99.90;;;;;;5098671;28;20473;-41
2024/02/05 11:03:43;;;;;;;26.45;5.50;;;10.70;99.90;;;;;;5099383;27;20360;-41
2024/02/05 11:06:11;;;;;;;29.67;4.20;;;10.70;99.90;;;;;;5103718;28;20059;-41
2024/02/05 11:08:40;;;;;;;20.00;4.65;;;10.80;99.90;;;;;;5101667;28;20035;-47
2024/02/05 11:11:09;;;;;;;19.85;3.67;;;10.80;99.90;;;;;;5113290;27;20035;-44
2024/02/05 11:13:55;;;;;;;28.20;4.47;;;10.70;99.90;;;;;;5115004;28;20027;-46
2024/02/05 11:16:23;;;;;;;32.90;5.72;;;10.70;99.90;;;;;;5114322;28;20084;-44
2024/02/05 11:18:52;;;;;;;33.83;7.40;;;10.80;99.90;;;;;;5110096;28;20058;-43
2024/02/05 11:21:25;;;;;;;20.02;4.75;;;10.90;99.90;;;;;;5107458;27;20068;-41
2024/02/05 11:23:52;;;;;;;22.42;4.28;;;10.80;99.90;;;;;;5106656;28;20044;-39
2024/02/05 11:26:19;;;;;;;27.95;4.93;;;10.80;99.90;;;;;;5095300;28;20422;-44
2024/02/05 11:28:53;;;;;;;22.33;4.85;;;10.90;99.90;;;;;;5105477;28;20494;-47
2024/02/05 11:31:23;;;;;;;25.13;5.28;;;11.00;99.90;;;;;;5099870;28;20391;-41
2024/02/05 11:33:58;;;;;;;23.42;5.63;;;11.00;99.90;;;;;;5101939;28;20025;-42
2024/02/05 11:36:27;;;;;;;24.90;4.28;;;11.10;99.90;;;;;;5094600;28;20614;-44
2024/02/05 11:39:01;;;;;;;36.47;5.47;;;11.20;99.90;;;;;;5097927;28;20028;-40
2024/02/05 11:41:27;;;;;;;22.42;4.55;;;11.30;99.90;;;;;;5107894;28;20031;-44
2024/02/05 11:44:05;;;;;;;22.23;3.35;;;11.30;99.90;;;;;;5114393;28;20160;-49
2024/02/05 11:46:33;;;;;;;18.95;4.45;;;11.20;99.90;;;;;;5113656;28;20026;-45
2024/02/05 11:48:59;;;;;;;21.38;4.28;;;11.30;99.90;;;;;;5099536;28;20472;-46
2024/02/05 11:51:24;;;;;;;23.83;5.70;;;11.30;99.90;;;;;;5094198;28;20031;-46
2024/02/05 11:53:50;;;;;;;30.10;6.28;;;11.30;99.90;;;;;;5093000;28;20169;-44
2024/02/05 11:56:16;;;;;;;27.95;7.13;;;11.20;99.90;;;;;;5094663;28;20020;-42
2024/02/05 11:58:41;;;;;;;26.50;4.53;;;11.20;99.90;;;;;;5094777;28;20032;-41
2024/02/05 12:01:11;;;;;;;25.48;6.43;;;11.20;99.90;;;;;;5093797;28;20039;-40
2024/02/05 12:03:37;;;;;;;21.42;5.65;;;11.30;99.90;;;;;;5104092;28;20024;-44
2024/02/05 12:06:06;;;;;;;23.70;5.47;;;11.30;99.90;;;;;;5111174;28;20028;-48
2024/02/05 12:08:32;;;;;;;30.90;5.78;;;11.20;99.90;;;;;;5093515;28;20035;-46
2024/02/05 12:10:59;;;;;;;40.40;5.65;;;11.20;99.90;;;;;;5101645;27;20028;-43
2024/02/05 12:13:25;;;;;;;28.15;5.30;;;11.20;99.90;;;;;;5093524;28;20024;-48
2024/02/05 12:15:50;;;;;;;29.10;5.72;;;11.20;99.90;;;;;;5108122;28;20066;-42
2024/02/05 12:18:16;;;;;;;22.80;4.57;;;11.20;99.90;;;;;;5111942;28;20095;-43
2024/02/05 12:20:42;;;;;;;30.75;5.35;;;11.30;99.90;;;;;;5093481;28;20050;-50
2024/02/05 12:23:07;;;;;;;28.35;4.80;;;11.20;99.90;;;;;;5111769;27;20024;-46
2024/02/05 12:25:34;;;;;;;32.78;5.20;;;11.30;99.90;;;;;;5113808;28;20027;-41
2024/02/05 12:28:00;;;;;;;29.08;6.00;;;11.30;99.90;;;;;;5103086;28;20030;-43
2024/02/05 12:30:25;;;;;;;24.67;4.57;;;11.30;99.90;;;;;;5109643;28;20036;-44
2024/02/05 12:32:55;;;;;;;22.45;4.35;;;11.30;99.90;;;;;;5105907;28;20027;-43
2024/02/05 12:35:22;;;;;;;21.85;4.88;;;11.30;99.90;;;;;;5102918;28;20499;-59